Time;durP1;ratioP1;P1;durP2;ratioP2;P2;SDS_P1;SDS_P2;PMS_P1;PMS_P2;Temp;Humidity;BMP_temperature;BMP_pressure;BME280_temperature;BME280_humidity;BME280_pressure;Samples;Min_cycle;Max_cycle;Signal;HPM_P1;HPM_P2
2021/11/03 00:00:00;;;;;;;;;;;12.80;98.00;13.10;97905.00;;;;341897;28;82462;-92
2021/11/03 00:00:14;;;;;;;;;;;12.80;98.00;13.10;97914.00;;;;344097;28;90295;-91
2021/11/03 00:00:26;;;;;;;;;;;12.80;98.00;13.10;97912.00;;;;345834;28;82380;-91
2021/11/03 00:00:39;;;;;;;;;;;12.80;98.00;13.20;97910.00;;;;342739;28;88342;-91
2021/11/03 00:00:52;;;;;;;;;;;12.80;98.20;13.10;97911.00;;;;345886;28;82404;-92
2021/11/03 00:01:05;;;;;;;;;;;12.80;98.50;13.10;97921.00;;;;348244;27;90901;-91
2021/11/03 00:01:18;;;;;;;;;;;12.80;98.20;13.10;97917.00;;;;345948;28;82602;-91
2021/11/03 00:01:30;;;;;;;;;;;12.80;98.20;13.10;97919.00;;;;342814;28;90529;-92
2021/11/03 00:01:42;;;;;;;;;;;12.70;98.20;13.10;97927.00;;;;342969;28;83612;-91
2021/11/03 00:01:54;;;;;;;;;;;12.80;98.20;13.20;97921.00;;;;344222;28;88864;-91
2021/11/03 00:02:06;;;;;;;;;;;12.80;98.20;13.10;97926.00;;;;344785;28;82550;-91
2021/11/03 00:02:18;;;;;;;;;;;12.70;98.20;13.10;97924.00;;;;344354;28;88012;-92
2021/11/03 00:02:31;;;;;;;;;;;12.80;98.20;13.10;97924.00;;;;343346;28;82499;-92
2021/11/03 00:02:42;;;;;;;;;;;12.80;98.20;13.20;97924.00;;;;344358;28;88989;-92
2021/11/03 00:02:54;;;;;;;;;;;12.70;98.20;13.20;97915.00;;;;345863;28;83587;-92
2021/11/03 00:03:06;;;;;;;;;;;12.80;98.20;13.10;97924.00;;;;343823;28;86838;-92
2021/11/03 00:03:18;;;;;;;;;;;12.80;98.20;13.20;97918.00;;;;341879;28;83203;-92
2021/11/03 00:03:33;;;;;;;;;;;12.80;98.20;13.20;97912.00;;;;344095;28;89454;-92
2021/11/03 00:03:46;;;;;;;;;;;12.80;98.20;13.30;97913.00;;;;345996;28;83612;-92
2021/11/03 00:03:58;;;;;;;;;;;12.80;98.10;13.30;97914.00;;;;342663;28;91633;-91
2021/11/03 00:04:10;;;;;;;;;;;12.80;98.20;13.30;97914.00;;;;344414;28;82549;-91
2021/11/03 00:04:22;;;;;;;;;;;12.80;98.10;13.20;97911.00;;;;342843;28;87782;-93
2021/11/03 00:04:34;;;;;;;;;;;12.80;98.20;13.20;97925.00;;;;343468;28;83344;-92
2021/11/03 00:04:47;;;;;;;;;;;12.80;98.20;13.20;97922.00;;;;345433;28;91983;-92
2021/11/03 00:05:00;;;;;;;;;;;12.80;98.20;13.20;97921.00;;;;347231;28;82598;-90
2021/11/03 00:05:13;;;;;;;;;;;12.80;98.20;13.30;97917.00;;;;349940;27;86552;-92
2021/11/03 00:05:24;;;;;;;;;;;12.80;98.10;13.30;97915.00;;;;344803;28;83355;-92
2021/11/03 00:05:46;;;;;;;;;;;12.90;98.10;13.30;97924.00;;;;345520;28;90405;-91
2021/11/03 00:05:58;;;;;;;;;;;12.80;98.10;13.30;97923.00;;;;347267;28;83440;-91
2021/11/03 00:06:10;;;;;;;;;;;12.90;98.30;13.20;97930.00;;;;344265;28;89417;-91
2021/11/03 00:06:22;;;;;;;;;;;12.90;98.30;13.30;97919.00;;;;344702;28;83189;-91
2021/11/03 00:06:34;;;;;;;;;;;12.90;98.20;13.30;97926.00;;;;345425;28;88299;-91
2021/11/03 00:06:46;;;;;;;;;;;12.90;98.30;13.30;97924.00;;;;343449;28;82435;-91
2021/11/03 00:06:58;;;;;;;;;;;12.90;98.20;13.30;97925.00;;;;347022;28;91805;-92
2021/11/03 00:07:10;;;;;;;;;;;12.90;98.30;13.30;97923.00;;;;348304;27;83575;-91
2021/11/03 00:07:22;;;;;;;;;;;12.90;98.20;13.30;97920.00;;;;348641;27;87990;-91
2021/11/03 00:07:34;;;;;;;;;;;12.90;98.20;13.30;97921.00;;;;350087;27;83499;-92
2021/11/03 00:07:46;;;;;;;;;;;12.90;98.20;13.30;97929.00;;;;348435;27;89657;-92
2021/11/03 00:07:58;;;;;;;;;;;12.90;98.30;13.30;97924.00;;;;347264;28;83356;-92
2021/11/03 00:08:10;;;;;;;;;;;12.90;98.30;13.20;97922.00;;;;347086;28;89632;-91
2021/11/03 00:08:23;;;;;;;;;;;12.90;98.30;13.30;97925.00;;;;344661;28;83338;-92
2021/11/03 00:08:35;;;;;;;;;;;12.90;98.30;13.30;97929.00;;;;345809;28;88158;-91
2021/11/03 00:08:47;;;;;;;;;;;12.90;98.30;13.30;97922.00;;;;347520;28;83131;-92
2021/11/03 00:09:00;;;;;;;;;;;12.90;98.40;13.30;97918.00;;;;348461;27;88904;-91
2021/11/03 00:09:12;;;;;;;;;;;12.90;98.40;13.30;97919.00;;;;345979;28;83521;-91
2021/11/03 00:09:25;;;;;;;;;;;12.90;98.40;13.30;97934.00;;;;344304;28;86879;-91
2021/11/03 00:09:38;;;;;;;;;;;12.90;98.40;13.30;97919.00;;;;345796;28;82318;-90
2021/11/03 00:09:50;;;;;;;;;;;12.90;98.30;13.40;97930.00;;;;348282;27;90015;-92
2021/11/03 00:10:05;;;;;;;;;;;12.90;98.40;13.30;97922.00;;;;348512;27;83438;-91
2021/11/03 00:10:17;;;;;;;;;;;12.90;98.40;13.30;97923.00;;;;346399;28;89253;-91
2021/11/03 00:10:29;;;;;;;;;;;12.90;98.40;13.30;97925.00;;;;345675;28;82330;-91
2021/11/03 00:10:42;;;;;;;;;;;12.90;98.40;13.30;97926.00;;;;344384;28;89444;-91
2021/11/03 00:10:54;;;;;;;;;;;12.90;98.40;13.30;97931.00;;;;348693;27;82521;-91
2021/11/03 00:11:06;;;;;;;;;;;12.90;98.40;13.30;97935.00;;;;348119;27;90673;-91
2021/11/03 00:11:17;;;;;;;;;;;12.90;98.40;13.30;97929.00;;;;347496;28;83385;-92
2021/11/03 00:11:30;;;;;;;;;;;12.90;98.40;13.30;97930.00;;;;347089;28;88492;-92
2021/11/03 00:11:42;;;;;;;;;;;12.90;98.40;13.30;97921.00;;;;346083;28;83111;-92
2021/11/03 00:11:53;;;;;;;;;;;12.90;98.40;13.30;97928.00;;;;344104;28;89849;-92
2021/11/03 00:12:10;;;;;;;;;;;12.90;98.40;13.30;97921.00;;;;345847;28;82690;-90
2021/11/03 00:12:22;;;;;;;;;;;12.90;98.40;13.30;97922.00;;;;344228;28;89187;-91
2021/11/03 00:12:34;;;;;;;;;;;12.90;98.40;13.30;97929.00;;;;345956;28;83177;-90
2021/11/03 00:12:45;;;;;;;;;;;12.90;98.40;13.30;97932.00;;;;346045;28;90230;-92
2021/11/03 00:12:57;;;;;;;;;;;12.90;98.40;13.30;97925.00;;;;346131;28;83300;-90
2021/11/03 00:13:12;;;;;;;;;;;12.90;98.40;13.30;97934.00;;;;346858;28;89232;-92
2021/11/03 00:13:25;;;;;;;;;;;12.90;98.50;13.30;97932.00;;;;346070;28;83443;-91
2021/11/03 00:13:37;;;;;;;;;;;12.90;98.40;13.30;97928.00;;;;347000;28;91515;-91
2021/11/03 00:13:48;;;;;;;;;;;12.90;98.40;13.30;97936.00;;;;346085;28;83267;-91
2021/11/03 00:14:00;;;;;;;;;;;12.90;98.40;13.30;97935.00;;;;345754;28;86671;-91
2021/11/03 00:14:12;;;;;;;;;;;12.90;98.40;13.30;97936.00;;;;345985;28;83460;-92
2021/11/03 00:14:24;;;;;;;;;;;12.90;98.50;13.30;97938.00;;;;346890;28;90550;-91
2021/11/03 00:14:35;;;;;;;;;;;12.90;98.50;13.30;97937.00;;;;344502;28;83356;-91
2021/11/03 00:14:47;;;;;;;;;;;12.90;98.50;13.30;97942.00;;;;345319;28;91616;-92
2021/11/03 00:14:59;;;;;;;;;;;12.90;98.60;13.30;97930.00;;;;346044;28;83165;-91
2021/11/03 00:15:11;;;;;;;;;;;12.90;98.60;13.30;97942.00;;;;345769;28;89412;-91
2021/11/03 00:15:23;;;;;;;;;;;12.90;98.60;13.20;97930.00;;;;344669;28;83351;-91
2021/11/03 00:15:35;;;;;;;;;;;12.90;98.60;13.30;97931.00;;;;348183;27;92001;-91
2021/11/03 00:15:46;;;;;;;;;;;12.90;98.70;13.30;97937.00;;;;347216;28;83334;-92
2021/11/03 00:15:58;;;;;;;;;;;12.90;98.70;13.30;97932.00;;;;345642;28;87149;-92
2021/11/03 00:16:10;;;;;;;;;;;12.90;98.60;13.30;97928.00;;;;346135;28;83374;-91
2021/11/03 00:16:22;;;;;;;;;;;12.90;98.60;13.30;97928.00;;;;345537;28;90607;-91
2021/11/03 00:16:34;;;;;;;;;;;12.90;98.60;13.30;97930.00;;;;343399;28;83417;-92
2021/11/03 00:16:46;;;;;;;;;;;12.90;98.60;13.30;97927.00;;;;344126;28;90662;-92
2021/11/03 00:16:58;;;;;;;;;;;12.90;98.60;13.30;97914.00;;;;347238;28;82590;-92
2021/11/03 00:17:10;;;;;;;;;;;12.90;98.60;13.30;97922.00;;;;345564;28;89344;-91
2021/11/03 00:17:21;;;;;;;;;;;12.90;98.60;13.30;97927.00;;;;347322;28;82575;-92
2021/11/03 00:17:33;;;;;;;;;;;12.90;98.70;13.20;97927.00;;;;345519;28;91348;-92
2021/11/03 00:17:45;;;;;;;;;;;12.90;98.80;13.30;97924.00;;;;347460;28;83203;-91
2021/11/03 00:17:57;;;;;;;;;;;12.90;98.80;13.30;97919.00;;;;346904;28;91476;-92
2021/11/03 00:18:09;;;;;;;;;;;12.90;98.70;13.30;97927.00;;;;346035;28;83189;-92
2021/11/03 00:18:21;;;;;;;;;;;12.90;98.70;13.30;97926.00;;;;346807;28;90176;-92
2021/11/03 00:18:32;;;;;;;;;;;12.90;98.80;13.30;97937.00;;;;347481;27;83352;-92
2021/11/03 00:18:45;;;;;;;;;;;12.90;98.80;13.30;97929.00;;;;346840;28;90145;-91
2021/11/03 00:18:56;;;;;;;;;;;12.90;98.80;13.30;97922.00;;;;347581;28;82275;-92
2021/11/03 00:19:08;;;;;;;;;;;12.90;98.90;13.30;97925.00;;;;346929;28;87387;-91
2021/11/03 00:19:20;;;;;;;;;;;12.90;98.70;13.30;97925.00;;;;347502;28;83181;-92
2021/11/03 00:19:32;;;;;;;;;;;12.90;98.80;13.30;97928.00;;;;349897;27;89650;-92
2021/11/03 00:19:44;;;;;;;;;;;12.90;98.80;13.30;97930.00;;;;348863;27;82383;-92
2021/11/03 00:19:56;;;;;;;;;;;12.90;98.80;13.30;97926.00;;;;346751;28;87854;-92
2021/11/03 00:20:08;;;;;;;;;;;12.90;98.80;13.30;97926.00;;;;348679;27;83446;-92
2021/11/03 00:20:20;;;;;;;;;;;12.90;98.80;13.30;97935.00;;;;349320;27;89303;-92
2021/11/03 00:20:32;;;;;;;;;;;12.90;98.90;13.30;97930.00;;;;347505;28;82230;-92
2021/11/03 00:20:44;;;;;;;;;;;12.90;98.90;13.30;97936.00;;;;344360;28;89537;-92
2021/11/03 00:20:57;;;;;;;;;;;12.90;98.90;13.30;97920.00;;;;345908;28;83610;-92
2021/11/03 00:21:08;;;;;;;;;;;12.90;98.90;13.30;97935.00;;;;344068;28;90143;-91
2021/11/03 00:21:20;;;;;;;;;;;12.90;98.90;13.30;97930.00;;;;346125;28;83336;-92
2021/11/03 00:21:35;;;;;;;;;;;12.90;98.90;13.30;97922.00;;;;344952;28;86715;-91
2021/11/03 00:21:47;;;;;;;;;;;12.90;98.90;13.20;97934.00;;;;343411;28;83290;-91
2021/11/03 00:21:59;;;;;;;;;;;12.90;98.90;13.30;97935.00;;;;347159;28;88906;-92
2021/11/03 00:22:12;;;;;;;;;;;12.90;98.90;13.30;97922.00;;;;347249;28;82412;-92
2021/11/03 00:22:24;;;;;;;;;;;12.90;99.00;13.30;97936.00;;;;346904;28;90100;-91
2021/11/03 00:22:36;;;;;;;;;;;12.90;99.00;13.30;97924.00;;;;347133;28;83420;-91
2021/11/03 00:22:48;;;;;;;;;;;12.90;98.90;13.30;97926.00;;;;347095;28;90010;-91
2021/11/03 00:22:59;;;;;;;;;;;12.90;98.80;13.20;97927.00;;;;347453;28;83428;-91
2021/11/03 00:23:11;;;;;;;;;;;12.90;98.80;13.20;97932.00;;;;348159;27;91477;-92
2021/11/03 00:23:24;;;;;;;;;;;12.90;98.80;13.30;97930.00;;;;347495;28;83345;-92
2021/11/03 00:23:35;;;;;;;;;;;12.90;98.80;13.20;97932.00;;;;347115;28;89470;-92
2021/11/03 00:23:47;;;;;;;;;;;12.90;98.80;13.20;97922.00;;;;344475;28;83478;-91
2021/11/03 00:23:59;;;;;;;;;;;12.90;98.80;13.30;97934.00;;;;345732;28;88828;-92
2021/11/03 00:24:11;;;;;;;;;;;12.90;98.60;13.30;97923.00;;;;346161;28;82256;-92
2021/11/03 00:24:23;;;;;;;;;;;12.90;98.60;13.30;97930.00;;;;345586;28;90198;-92
2021/11/03 00:24:35;;;;;;;;;;;12.90;98.60;13.30;97926.00;;;;347644;27;82361;-92
2021/11/03 00:24:47;;;;;;;;;;;12.90;98.60;13.30;97928.00;;;;350150;27;88377;-92
2021/11/03 00:25:00;;;;;;;;;;;12.90;98.60;13.30;97924.00;;;;348142;28;82566;-91
2021/11/03 00:25:14;;;;;;;;;;;12.90;98.60;13.30;97933.00;;;;347025;28;87913;-91
2021/11/03 00:25:30;;;;;;;;;;;12.90;98.70;13.30;97936.00;;;;349148;28;82405;-91
2021/11/03 00:25:47;;;;;;;;;;;12.90;98.70;13.30;97921.00;;;;348135;28;86615;-93
2021/11/03 00:25:59;;;;;;;;;;;12.90;98.70;13.30;97922.00;;;;351849;27;82283;-91
2021/11/03 00:26:14;;;;;;;;;;;12.90;98.80;13.30;97919.00;;;;347768;28;88090;-92
2021/11/03 00:26:26;;;;;;;;;;;12.90;98.70;13.30;97918.00;;;;347581;28;82507;-91
2021/11/03 00:26:38;;;;;;;;;;;12.90;98.20;13.30;97921.00;;;;346160;28;87557;-91
2021/11/03 00:26:50;;;;;;;;;;;12.90;98.10;13.30;97929.00;;;;344759;28;83263;-92
2021/11/03 00:27:02;;;;;;;;;;;12.90;98.10;13.30;97932.00;;;;345624;28;90355;-92
2021/11/03 00:27:15;;;;;;;;;;;12.90;98.20;13.30;97931.00;;;;346250;28;83281;-92
2021/11/03 00:27:27;;;;;;;;;;;12.90;98.20;13.30;97930.00;;;;348705;27;89078;-91
2021/11/03 00:27:38;;;;;;;;;;;12.90;98.50;13.30;97925.00;;;;349758;27;82436;-91
2021/11/03 00:27:50;;;;;;;;;;;12.90;98.20;13.30;97927.00;;;;347264;28;91749;-91
2021/11/03 00:28:03;;;;;;;;;;;12.90;98.20;13.30;97911.00;;;;347827;28;83010;-91
2021/11/03 00:28:17;;;;;;;;;;;12.90;97.90;13.20;97925.00;;;;348789;27;88934;-91
2021/11/03 00:28:29;;;;;;;;;;;12.90;97.60;13.20;97917.00;;;;346183;28;82492;-91
2021/11/03 00:28:40;;;;;;;;;;;12.90;97.50;13.20;97920.00;;;;346771;28;88718;-91
2021/11/03 00:28:52;;;;;;;;;;;12.90;97.60;13.30;97921.00;;;;347818;28;82477;-91
2021/11/03 00:29:04;;;;;;;;;;;12.90;97.70;13.30;97918.00;;;;345951;28;90116;-90
2021/11/03 00:29:16;;;;;;;;;;;12.90;97.60;13.30;97925.00;;;;348532;28;82582;-92
2021/11/03 00:29:29;;;;;;;;;;;12.90;97.50;13.20;97916.00;;;;344751;28;87066;-92
2021/11/03 00:29:40;;;;;;;;;;;12.90;97.50;13.20;97918.00;;;;346776;28;82331;-92
2021/11/03 00:29:52;;;;;;;;;;;12.90;97.40;13.20;97922.00;;;;349162;27;88010;-91
2021/11/03 00:30:06;;;;;;;;;;;12.90;97.30;13.20;97924.00;;;;347019;28;82312;-92
2021/11/03 00:30:35;;;;;;;;;;;12.90;97.20;13.20;97933.00;;;;345327;28;88617;-91
2021/11/03 00:30:48;;;;;;;;;;;12.90;97.20;13.20;97933.00;;;;349581;28;82582;-92
2021/11/03 00:31:00;;;;;;;;;;;12.90;97.00;13.20;97933.00;;;;346669;28;91395;-91
2021/11/03 00:31:12;;;;;;;;;;;12.90;97.00;13.20;97924.00;;;;344843;28;82365;-92
2021/11/03 00:31:24;;;;;;;;;;;12.90;97.00;13.20;97932.00;;;;344365;28;88806;-92
2021/11/03 00:31:36;;;;;;;;;;;12.90;97.00;13.20;97925.00;;;;344840;28;83354;-93
2021/11/03 00:31:48;;;;;;;;;;;12.90;97.00;13.20;97929.00;;;;344304;28;89025;-92
2021/11/03 00:31:59;;;;;;;;;;;12.80;97.00;13.20;97924.00;;;;344591;28;82612;-92
2021/11/03 00:32:13;;;;;;;;;;;12.80;97.00;13.20;97934.00;;;;345373;28;91461;-92
2021/11/03 00:32:25;;;;;;;;;;;12.80;97.00;13.20;97924.00;;;;345837;28;82482;-92
2021/11/03 00:32:36;;;;;;;;;;;12.80;97.00;13.20;97924.00;;;;345339;28;88705;-91
2021/11/03 00:32:51;;;;;;;;;;;12.80;96.90;13.10;97926.00;;;;345702;28;83483;-92
2021/11/03 00:33:03;;;;;;;;;;;12.80;96.80;13.10;97929.00;;;;345317;28;92363;-92
2021/11/03 00:33:15;;;;;;;;;;;12.80;96.70;13.20;97930.00;;;;347336;28;82492;-93
2021/11/03 00:33:29;;;;;;;;;;;12.80;96.80;13.10;97928.00;;;;346892;28;91768;-92
2021/11/03 00:33:41;;;;;;;;;;;12.80;96.90;13.10;97933.00;;;;346164;28;83631;-92
2021/11/03 00:33:53;;;;;;;;;;;12.80;96.80;13.20;97924.00;;;;346969;28;89521;-92
2021/11/03 00:34:04;;;;;;;;;;;12.80;96.90;13.20;97929.00;;;;347682;28;82227;-92
2021/11/03 00:34:16;;;;;;;;;;;12.80;97.00;13.10;97928.00;;;;345747;28;89417;-92
2021/11/03 00:34:28;;;;;;;;;;;12.80;96.80;13.10;97929.00;;;;346044;28;83371;-93
2021/11/03 00:34:40;;;;;;;;;;;12.80;96.90;13.10;97930.00;;;;348212;27;90415;-92
2021/11/03 00:34:52;;;;;;;;;;;12.80;96.90;13.10;97935.00;;;;347331;28;83360;-93
2021/11/03 00:35:04;;;;;;;;;;;12.80;96.90;13.10;97931.00;;;;347043;28;88789;-92
2021/11/03 00:35:16;;;;;;;;;;;12.80;96.90;13.10;97929.00;;;;347560;27;83588;-92
2021/11/03 00:35:28;;;;;;;;;;;12.80;97.00;13.10;97928.00;;;;344411;28;86624;-92
2021/11/03 00:35:39;;;;;;;;;;;12.80;97.00;13.10;97925.00;;;;344693;28;83406;-91
2021/11/03 00:35:51;;;;;;;;;;;12.80;97.00;13.10;97931.00;;;;346799;28;91384;-92
2021/11/03 00:36:03;;;;;;;;;;;12.80;97.00;13.10;97931.00;;;;348809;27;82436;-92
2021/11/03 00:36:15;;;;;;;;;;;12.80;97.10;13.10;97933.00;;;;345495;28;90226;-92
2021/11/03 00:36:27;;;;;;;;;;;12.80;97.10;13.10;97936.00;;;;347240;28;83326;-92
2021/11/03 00:36:39;;;;;;;;;;;12.70;97.10;13.10;97936.00;;;;346523;28;89725;-92
2021/11/03 00:36:51;;;;;;;;;;;12.70;97.20;13.10;97923.00;;;;345736;28;82502;-93
2021/11/03 00:37:03;;;;;;;;;;;12.80;97.30;13.10;97925.00;;;;347020;28;90050;-92
2021/11/03 00:37:15;;;;;;;;;;;12.70;97.40;13.10;97925.00;;;;347108;28;82474;-92
2021/11/03 00:37:27;;;;;;;;;;;12.80;97.40;13.10;97919.00;;;;347187;28;87045;-92
2021/11/03 00:37:39;;;;;;;;;;;12.70;97.40;13.10;97920.00;;;;348955;27;82302;-91
2021/11/03 00:37:51;;;;;;;;;;;12.70;97.40;13.10;97924.00;;;;347035;28;88984;-92
2021/11/03 00:38:02;;;;;;;;;;;12.70;97.40;13.10;97924.00;;;;347389;28;83388;-92
2021/11/03 00:38:14;;;;;;;;;;;12.70;97.40;13.10;97923.00;;;;348415;27;89497;-92
2021/11/03 00:38:26;;;;;;;;;;;12.70;97.50;13.00;97924.00;;;;350017;27;83611;-92
2021/11/03 00:38:38;;;;;;;;;;;12.70;97.50;13.00;97917.00;;;;347115;28;89080;-91
2021/11/03 00:38:50;;;;;;;;;;;12.70;97.50;13.00;97918.00;;;;345991;28;82415;-91
2021/11/03 00:39:02;;;;;;;;;;;12.70;97.50;13.00;97922.00;;;;346693;28;91197;-92
2021/11/03 00:39:14;;;;;;;;;;;12.70;97.50;13.00;97916.00;;;;347321;28;84023;-92
2021/11/03 00:39:26;;;;;;;;;;;12.70;97.50;13.00;97923.00;;;;348349;27;89169;-93
2021/11/03 00:39:37;;;;;;;;;;;12.70;97.50;13.10;97925.00;;;;345634;28;83521;-93
2021/11/03 00:39:49;;;;;;;;;;;12.70;97.60;13.10;97921.00;;;;347234;27;88197;-92
2021/11/03 00:40:01;;;;;;;;;;;12.70;97.60;13.10;97918.00;;;;350323;27;83143;-93
2021/11/03 00:40:13;;;;;;;;;;;12.70;97.60;13.00;97921.00;;;;346870;28;90463;-93
2021/11/03 00:40:25;;;;;;;;;;;12.70;97.60;13.00;97919.00;;;;344668;28;83404;-93
2021/11/03 00:40:37;;;;;;;;;;;12.70;97.60;13.00;97913.00;;;;346846;28;91227;-92
2021/11/03 00:40:49;;;;;;;;;;;12.70;97.60;13.10;97921.00;;;;347509;28;82319;-92
2021/11/03 00:41:01;;;;;;;;;;;12.70;97.70;13.00;97924.00;;;;346798;28;92458;-92
2021/11/03 00:41:12;;;;;;;;;;;12.70;97.70;13.00;97921.00;;;;345882;28;82429;-92
2021/11/03 00:41:24;;;;;;;;;;;12.70;97.70;13.00;97912.00;;;;344309;28;86952;-93
2021/11/03 00:41:36;;;;;;;;;;;12.70;97.70;13.10;97915.00;;;;346200;28;82299;-93
2021/11/03 00:41:49;;;;;;;;;;;12.70;97.80;13.00;97919.00;;;;343713;28;89123;-92
2021/11/03 00:42:00;;;;;;;;;;;12.70;97.80;12.90;97919.00;;;;347544;28;83238;-93
2021/11/03 00:42:12;;;;;;;;;;;12.70;97.70;12.90;97920.00;;;;347051;28;89586;-93
2021/11/03 00:42:24;;;;;;;;;;;12.70;97.70;13.00;97919.00;;;;346023;28;83269;-93
2021/11/03 00:42:36;;;;;;;;;;;12.70;97.70;13.00;97916.00;;;;346067;28;87740;-93
2021/11/03 00:42:50;;;;;;;;;;;12.70;97.80;13.00;97916.00;;;;347487;27;83469;-91
2021/11/03 00:43:02;;;;;;;;;;;12.70;97.80;13.00;97910.00;;;;344020;28;90986;-92
2021/11/03 00:43:14;;;;;;;;;;;12.70;97.80;13.00;97913.00;;;;344774;28;83300;-91
2021/11/03 00:43:26;;;;;;;;;;;12.60;97.80;13.00;97916.00;;;;346883;28;91498;-91
2021/11/03 00:43:38;;;;;;;;;;;12.60;97.80;13.00;97917.00;;;;344556;28;83308;-89
2021/11/03 00:43:52;;;;;;;;;;;12.60;97.80;13.00;97908.00;;;;345405;28;88142;-91
2021/11/03 00:44:04;;;;;;;;;;;12.70;97.90;13.00;97917.00;;;;348724;27;82640;-91
2021/11/03 00:44:16;;;;;;;;;;;12.60;97.90;13.10;97915.00;;;;346795;28;92221;-92
2021/11/03 00:44:28;;;;;;;;;;;12.60;98.00;13.00;97918.00;;;;347414;28;82305;-92
2021/11/03 00:44:40;;;;;;;;;;;12.60;97.90;13.00;97915.00;;;;348498;27;89648;-92
2021/11/03 00:44:51;;;;;;;;;;;12.60;98.00;13.10;97912.00;;;;347431;28;83379;-92
2021/11/03 00:45:03;;;;;;;;;;;12.70;98.00;13.00;97909.00;;;;345242;28;92853;-92
2021/11/03 00:45:16;;;;;;;;;;;12.60;98.00;13.00;97916.00;;;;347537;28;82386;-92
2021/11/03 00:45:27;;;;;;;;;;;12.60;97.90;13.00;97910.00;;;;347011;28;89242;-92
2021/11/03 00:45:39;;;;;;;;;;;12.60;97.90;13.00;97914.00;;;;345730;28;83597;-92
2021/11/03 00:45:51;;;;;;;;;;;12.60;98.00;13.00;97908.00;;;;345665;28;89178;-93
2021/11/03 00:46:03;;;;;;;;;;;12.60;98.00;12.90;97915.00;;;;347395;28;83223;-92
2021/11/03 00:46:16;;;;;;;;;;;12.60;97.90;12.80;97914.00;;;;344159;28;91038;-92
2021/11/03 00:46:28;;;;;;;;;;;12.60;97.90;12.90;97916.00;;;;345825;28;83479;-93
2021/11/03 00:46:40;;;;;;;;;;;12.60;97.90;12.80;97917.00;;;;345757;28;88097;-92
2021/11/03 00:46:52;;;;;;;;;;;12.60;97.90;12.80;97919.00;;;;347315;28;83384;-92
2021/11/03 00:47:04;;;;;;;;;;;12.60;98.00;12.90;97920.00;;;;345682;28;89306;-93
2021/11/03 00:47:16;;;;;;;;;;;12.60;98.00;12.90;97912.00;;;;345773;28;83534;-92
2021/11/03 00:47:28;;;;;;;;;;;12.60;98.00;13.00;97911.00;;;;345669;28;88227;-92
2021/11/03 00:47:39;;;;;;;;;;;12.60;97.90;13.00;97911.00;;;;346072;28;83336;-92
2021/11/03 00:47:51;;;;;;;;;;;12.60;98.00;12.90;97913.00;;;;345711;28;88519;-92
2021/11/03 00:48:03;;;;;;;;;;;12.50;98.00;12.90;97906.00;;;;346150;28;83200;-92
2021/11/03 00:48:16;;;;;;;;;;;12.60;98.10;12.90;97918.00;;;;344169;28;91540;-92
2021/11/03 00:48:28;;;;;;;;;;;12.60;98.10;12.80;97909.00;;;;343113;28;82371;-92
2021/11/03 00:48:40;;;;;;;;;;;12.60;98.00;12.80;97911.00;;;;346666;28;89554;-92
2021/11/03 00:48:52;;;;;;;;;;;12.60;98.00;12.80;97905.00;;;;344635;28;83212;-92
2021/11/03 00:49:04;;;;;;;;;;;12.50;98.00;12.80;97906.00;;;;345105;28;89400;-92
2021/11/03 00:49:16;;;;;;;;;;;12.50;98.00;12.80;97911.00;;;;347525;28;83161;-93
2021/11/03 00:49:28;;;;;;;;;;;12.50;98.00;12.80;97908.00;;;;347012;28;88437;-92
2021/11/03 00:49:40;;;;;;;;;;;12.50;98.10;12.80;97910.00;;;;348550;27;83425;-92
2021/11/03 00:49:52;;;;;;;;;;;12.50;98.20;12.80;97914.00;;;;345445;28;89568;-92
2021/11/03 00:50:04;;;;;;;;;;;12.50;98.20;12.80;97912.00;;;;346102;28;83268;-93
2021/11/03 00:50:16;;;;;;;;;;;12.50;98.20;12.80;97917.00;;;;344284;28;89276;-92
2021/11/03 00:50:28;;;;;;;;;;;12.50;98.20;12.80;97904.00;;;;346125;28;82355;-92
2021/11/03 00:50:40;;;;;;;;;;;12.50;98.20;12.80;97907.00;;;;348149;27;91535;-92
2021/11/03 00:50:52;;;;;;;;;;;12.50;98.30;12.80;97907.00;;;;348734;27;82627;-93
2021/11/03 00:51:03;;;;;;;;;;;12.50;98.30;12.80;97907.00;;;;348075;27;89555;-92
2021/11/03 00:51:15;;;;;;;;;;;12.50;98.30;12.70;97911.00;;;;347534;28;83251;-93
2021/11/03 00:51:27;;;;;;;;;;;12.40;98.30;12.70;97898.00;;;;346884;28;92261;-92
2021/11/03 00:51:39;;;;;;;;;;;12.50;98.30;12.80;97916.00;;;;345252;28;82552;-92
2021/11/03 00:51:51;;;;;;;;;;;12.50;98.60;12.80;97905.00;;;;348447;27;88920;-92
2021/11/03 00:52:03;;;;;;;;;;;12.40;98.30;12.70;97908.00;;;;348891;27;83429;-92
2021/11/03 00:52:15;;;;;;;;;;;12.50;98.40;12.70;97902.00;;;;345666;28;89514;-92
2021/11/03 00:52:27;;;;;;;;;;;12.50;98.40;12.60;97915.00;;;;348926;27;83351;-92
2021/11/03 00:52:39;;;;;;;;;;;12.40;98.40;12.80;97895.00;;;;347067;28;88979;-92
2021/11/03 00:52:51;;;;;;;;;;;12.40;98.40;12.80;97917.00;;;;346089;28;83067;-92
2021/11/03 00:53:03;;;;;;;;;;;12.40;98.50;12.80;97908.00;;;;349751;27;89186;-92
2021/11/03 00:53:15;;;;;;;;;;;12.40;98.50;12.70;97906.00;;;;348628;27;83681;-92
2021/11/03 00:53:27;;;;;;;;;;;12.40;98.50;12.70;97907.00;;;;346656;28;91428;-92
2021/11/03 00:53:39;;;;;;;;;;;12.40;98.50;12.80;97910.00;;;;348659;27;83362;-92
2021/11/03 00:53:51;;;;;;;;;;;12.40;98.50;12.80;97898.00;;;;349761;27;91618;-92
2021/11/03 00:54:03;;;;;;;;;;;12.50;98.60;12.80;97910.00;;;;348981;27;82359;-92
2021/11/03 00:54:15;;;;;;;;;;;12.40;98.50;12.80;97910.00;;;;345648;28;88006;-91
2021/11/03 00:54:27;;;;;;;;;;;12.40;98.60;12.80;97902.00;;;;347986;27;82662;-92
2021/11/03 00:54:39;;;;;;;;;;;12.40;98.60;12.80;97902.00;;;;346909;28;89149;-92
2021/11/03 00:54:51;;;;;;;;;;;12.40;98.60;12.90;97903.00;;;;347532;28;82253;-92
2021/11/03 00:55:03;;;;;;;;;;;12.40;98.60;12.80;97899.00;;;;347941;27;89513;-92
2021/11/03 00:55:15;;;;;;;;;;;12.40;98.60;12.80;97900.00;;;;347253;28;83477;-92
2021/11/03 00:55:27;;;;;;;;;;;12.40;98.60;12.80;97903.00;;;;346672;28;91628;-92
2021/11/03 00:55:40;;;;;;;;;;;12.40;98.70;12.80;97902.00;;;;346001;28;83192;-92
2021/11/03 00:55:52;;;;;;;;;;;12.40;98.70;12.80;97898.00;;;;345360;28;92120;-92
2021/11/03 00:56:04;;;;;;;;;;;12.40;98.70;12.70;97904.00;;;;346071;28;82482;-92
2021/11/03 00:56:16;;;;;;;;;;;12.40;98.70;12.70;97904.00;;;;345544;28;91653;-92
2021/11/03 00:56:28;;;;;;;;;;;12.40;98.80;12.60;97905.00;;;;347534;28;83327;-91
2021/11/03 00:56:40;;;;;;;;;;;12.40;98.70;12.70;97906.00;;;;347108;28;89549;-92
2021/11/03 00:56:52;;;;;;;;;;;12.30;98.70;12.60;97914.00;;;;345865;28;83304;-92
2021/11/03 00:57:04;;;;;;;;;;;12.40;98.80;12.70;97906.00;;;;346960;28;89617;-92
2021/11/03 00:57:16;;;;;;;;;;;12.30;98.80;12.70;97901.00;;;;350316;27;83240;-92
2021/11/03 00:57:28;;;;;;;;;;;12.40;98.90;12.70;97911.00;;;;346900;28;86552;-92
2021/11/03 00:57:39;;;;;;;;;;;12.30;98.90;12.60;97904.00;;;;348429;27;83324;-91
2021/11/03 00:57:51;;;;;;;;;;;12.30;98.90;12.60;97903.00;;;;346961;28;90982;-92
2021/11/03 00:58:03;;;;;;;;;;;12.30;98.90;12.60;97907.00;;;;347530;28;83446;-92
2021/11/03 00:58:15;;;;;;;;;;;12.30;99.00;12.60;97904.00;;;;347082;28;89433;-93
2021/11/03 00:58:27;;;;;;;;;;;12.30;99.00;12.60;97899.00;;;;347421;28;83487;-92
2021/11/03 00:58:39;;;;;;;;;;;12.30;99.00;12.70;97901.00;;;;344383;28;88997;-92
2021/11/03 00:58:50;;;;;;;;;;;12.30;99.00;12.70;97901.00;;;;346127;28;83135;-93
2021/11/03 00:59:02;;;;;;;;;;;12.30;99.00;12.70;97909.00;;;;346773;28;92681;-92
2021/11/03 00:59:14;;;;;;;;;;;12.30;99.00;12.70;97909.00;;;;347488;28;83373;-92
2021/11/03 00:59:26;;;;;;;;;;;12.30;98.90;12.70;97902.00;;;;347021;28;88444;-92
2021/11/03 00:59:38;;;;;;;;;;;12.30;99.00;12.70;97904.00;;;;347346;28;82388;-92
2021/11/03 00:59:50;;;;;;;;;;;12.30;99.00;12.70;97906.00;;;;345718;28;88724;-92
2021/11/03 01:00:04;;;;;;;;;;;12.30;99.00;12.70;97907.00;;;;347239;28;83310;-93
2021/11/03 01:00:16;;;;;;;;;;;12.30;99.00;12.70;97902.00;;;;345716;28;87925;-92
2021/11/03 01:00:28;;;;;;;;;;;12.30;99.00;12.60;97902.00;;;;347391;27;83444;-92